Applegate, Michigan
Current Conditions -  °F | °C
As of 3:00 PM on Saturday 20 Dec 2014 (Local Time) from CYZR Reporting Station
Overcast Overcast  
Wind Chill: 30°   Ceiling: 2800
Heat Index: 30°   Visibility: 9mi
Dew Point: 19°   Wind: 3mph
Humidity: 64%   Direction: 220°SW
Pressure: 30.26"   Gusts: NA
Location:  43.36°N, 82.64°W
Report Text: CYZR 202000Z AUTO 22003KT 200V300 9SM OVC028 M01/M07 A3026 RMK SLP257
Loading
Personal Weather Stations






























Interactive Weather Map New forecast layout! Learn more

10-Day Weather Forecast

Advertisements
Track Severe Weather on mobile